sensor_id;sensor_type;location;lat;lon;timestamp;temperature;humidity
15947;DHT22;8072;52.554;7.966;2023-08-30T00:00:41;14.60;99.90
15947;DHT22;8072;52.554;7.966;2023-08-30T00:03:07;14.60;99.90
15947;DHT22;8072;52.554;7.966;2023-08-30T00:05:33;14.50;99.90
15947;DHT22;8072;52.554;7.966;2023-08-30T00:07:59;14.50;99.90
15947;DHT22;8072;52.554;7.966;2023-08-30T00:10:25;14.50;99.90
15947;DHT22;8072;52.554;7.966;2023-08-30T00:12:50;14.60;99.90
15947;DHT22;8072;52.554;7.966;2023-08-30T00:15:16;14.60;99.90
15947;DHT22;8072;52.554;7.966;2023-08-30T00:17:42;14.60;99.90
15947;DHT22;8072;52.554;7.966;2023-08-30T00:20:09;14.60;99.90
15947;DHT22;8072;52.554;7.966;2023-08-30T00:22:35;14.60;99.90
15947;DHT22;8072;52.554;7.966;2023-08-30T00:25:05;14.60;99.90
15947;DHT22;8072;52.554;7.966;2023-08-30T00:27:30;14.70;99.90
15947;DHT22;8072;52.554;7.966;2023-08-30T00:29:56;14.70;99.90
15947;DHT22;8072;52.554;7.966;2023-08-30T00:32:22;14.70;99.90
15947;DHT22;8072;52.554;7.966;2023-08-30T00:34:51;14.70;99.90
15947;DHT22;8072;52.554;7.966;2023-08-30T00:37:17;14.70;99.90
15947;DHT22;8072;52.554;7.966;2023-08-30T00:39:43;14.70;99.90
15947;DHT22;8072;52.554;7.966;2023-08-30T00:42:08;14.70;99.90
15947;DHT22;8072;52.554;7.966;2023-08-30T00:44:35;14.70;99.90
15947;DHT22;8072;52.554;7.966;2023-08-30T00:47:02;14.70;99.90
15947;DHT22;8072;52.554;7.966;2023-08-30T00:49:31;14.70;99.90
15947;DHT22;8072;52.554;7.966;2023-08-30T00:52:02;14.60;99.90
15947;DHT22;8072;52.554;7.966;2023-08-30T00:54:29;14.60;99.90
15947;DHT22;8072;52.554;7.966;2023-08-30T00:56:57;14.60;99.90
15947;DHT22;8072;52.554;7.966;2023-08-30T00:59:23;14.60;99.90
15947;DHT22;8072;52.554;7.966;2023-08-30T01:01:49;14.60;99.90
15947;DHT22;8072;52.554;7.966;2023-08-30T01:04:15;14.60;99.90
15947;DHT22;8072;52.554;7.966;2023-08-30T01:06:41;14.60;99.90
15947;DHT22;8072;52.554;7.966;2023-08-30T01:09:07;14.60;99.90
15947;DHT22;8072;52.554;7.966;2023-08-30T01:11:43;14.60;99.90
15947;DHT22;8072;52.554;7.966;2023-08-30T01:14:31;14.60;99.90
15947;DHT22;8072;52.554;7.966;2023-08-30T01:17:00;14.50;99.90
15947;DHT22;8072;52.554;7.966;2023-08-30T01:19:42;14.50;99.90
15947;DHT22;8072;52.554;7.966;2023-08-30T01:22:14;14.50;99.90
15947;DHT22;8072;52.554;7.966;2023-08-30T01:27:30;14.50;99.90
15947;DHT22;8072;52.554;7.966;2023-08-30T01:29:57;14.50;99.90
15947;DHT22;8072;52.554;7.966;2023-08-30T01:32:24;14.50;99.90
15947;DHT22;8072;52.554;7.966;2023-08-30T01:34:51;14.50;99.90
15947;DHT22;8072;52.554;7.966;2023-08-30T01:37:19;14.50;99.90
15947;DHT22;8072;52.554;7.966;2023-08-30T01:39:45;14.50;99.90
15947;DHT22;8072;52.554;7.966;2023-08-30T01:42:13;14.50;99.90
15947;DHT22;8072;52.554;7.966;2023-08-30T01:44:41;14.50;99.90
15947;DHT22;8072;52.554;7.966;2023-08-30T01:47:11;14.50;99.90
15947;DHT22;8072;52.554;7.966;2023-08-30T01:49:37;14.50;99.90
15947;DHT22;8072;52.554;7.966;2023-08-30T01:52:06;14.50;99.90
15947;DHT22;8072;52.554;7.966;2023-08-30T01:54:32;14.50;99.90
15947;DHT22;8072;52.554;7.966;2023-08-30T01:56:58;14.50;99.90
15947;DHT22;8072;52.554;7.966;2023-08-30T01:59:24;14.40;99.90
15947;DHT22;8072;52.554;7.966;2023-08-30T02:01:51;14.40;99.90
15947;DHT22;8072;52.554;7.966;2023-08-30T02:04:17;14.30;99.90
15947;DHT22;8072;52.554;7.966;2023-08-30T02:06:48;14.40;99.90
15947;DHT22;8072;52.554;7.966;2023-08-30T02:12:12;14.30;99.90
15947;DHT22;8072;52.554;7.966;2023-08-30T02:14:39;14.20;99.90
15947;DHT22;8072;52.554;7.966;2023-08-30T02:17:06;14.20;99.90
15947;DHT22;8072;52.554;7.966;2023-08-30T02:19:33;14.10;99.90
15947;DHT22;8072;52.554;7.966;2023-08-30T02:21:59;14.10;99.90
15947;DHT22;8072;52.554;7.966;2023-08-30T02:24:25;14.00;99.90
15947;DHT22;8072;52.554;7.966;2023-08-30T02:26:51;14.00;99.90
15947;DHT22;8072;52.554;7.966;2023-08-30T02:29:17;14.00;99.90
15947;DHT22;8072;52.554;7.966;2023-08-30T02:31:42;14.00;99.90
15947;DHT22;8072;52.554;7.966;2023-08-30T02:34:08;14.00;99.90
15947;DHT22;8072;52.554;7.966;2023-08-30T02:36:34;13.90;99.90
15947;DHT22;8072;52.554;7.966;2023-08-30T02:39:00;13.90;99.90
15947;DHT22;8072;52.554;7.966;2023-08-30T02:41:25;13.90;99.90
15947;DHT22;8072;52.554;7.966;2023-08-30T02:43:51;13.80;99.90
15947;DHT22;8072;52.554;7.966;2023-08-30T02:46:17;13.80;99.90
15947;DHT22;8072;52.554;7.966;2023-08-30T02:48:43;13.80;99.90
15947;DHT22;8072;52.554;7.966;2023-08-30T02:51:09;13.80;99.90
15947;DHT22;8072;52.554;7.966;2023-08-30T02:53:36;13.70;99.90
15947;DHT22;8072;52.554;7.966;2023-08-30T02:56:02;13.70;99.90
15947;DHT22;8072;52.554;7.966;2023-08-30T02:58:27;13.70;99.90
15947;DHT22;8072;52.554;7.966;2023-08-30T03:00:53;13.70;99.90
15947;DHT22;8072;52.554;7.966;2023-08-30T03:03:19;13.70;99.90
15947;DHT22;8072;52.554;7.966;2023-08-30T03:05:45;13.70;99.90
15947;DHT22;8072;52.554;7.966;2023-08-30T03:08:11;13.70;99.90
15947;DHT22;8072;52.554;7.966;2023-08-30T03:10:37;13.70;99.90
15947;DHT22;8072;52.554;7.966;2023-08-30T03:13:04;13.70;99.90
15947;DHT22;8072;52.554;7.966;2023-08-30T03:15:33;13.70;99.90
15947;DHT22;8072;52.554;7.966;2023-08-30T03:18:00;13.70;99.90
15947;DHT22;8072;52.554;7.966;2023-08-30T03:20:26;13.70;99.90
15947;DHT22;8072;52.554;7.966;2023-08-30T03:22:55;13.70;99.90
15947;DHT22;8072;52.554;7.966;2023-08-30T03:25:21;13.70;99.90
15947;DHT22;8072;52.554;7.966;2023-08-30T03:27:47;13.60;99.90
15947;DHT22;8072;52.554;7.966;2023-08-30T03:30:13;13.60;99.90
15947;DHT22;8072;52.554;7.966;2023-08-30T03:32:39;13.60;99.90
15947;DHT22;8072;52.554;7.966;2023-08-30T03:35:05;13.60;99.90
15947;DHT22;8072;52.554;7.966;2023-08-30T03:37:34;13.50;99.90
15947;DHT22;8072;52.554;7.966;2023-08-30T03:40:00;13.50;99.90
15947;DHT22;8072;52.554;7.966;2023-08-30T03:42:26;13.50;99.90
15947;DHT22;8072;52.554;7.966;2023-08-30T03:44:51;13.50;99.90
15947;DHT22;8072;52.554;7.966;2023-08-30T03:47:18;13.50;99.90
15947;DHT22;8072;52.554;7.966;2023-08-30T03:49:44;13.40;99.90
15947;DHT22;8072;52.554;7.966;2023-08-30T03:52:10;13.40;99.90
15947;DHT22;8072;52.554;7.966;2023-08-30T03:54:36;13.40;99.90
15947;DHT22;8072;52.554;7.966;2023-08-30T03:57:01;13.40;99.90
15947;DHT22;8072;52.554;7.966;2023-08-30T03:59:28;13.40;99.90
15947;DHT22;8072;52.554;7.966;2023-08-30T04:01:54;13.30;99.90
15947;DHT22;8072;52.554;7.966;2023-08-30T04:04:20;13.30;99.90
15947;DHT22;8072;52.554;7.966;2023-08-30T04:06:46;13.30;99.90
15947;DHT22;8072;52.554;7.966;2023-08-30T04:09:12;13.20;99.90
15947;DHT22;8072;52.554;7.966;2023-08-30T04:11:38;13.20;99.90
15947;DHT22;8072;52.554;7.966;2023-08-30T04:14:04;13.20;99.90
15947;DHT22;8072;52.554;7.966;2023-08-30T04:16:30;13.10;99.90
15947;DHT22;8072;52.554;7.966;2023-08-30T04:18:55;13.10;99.90
15947;DHT22;8072;52.554;7.966;2023-08-30T04:21:21;13.10;99.90
15947;DHT22;8072;52.554;7.966;2023-08-30T04:23:47;13.10;99.90
15947;DHT22;8072;52.554;7.966;2023-08-30T04:26:12;13.00;99.90
15947;DHT22;8072;52.554;7.966;2023-08-30T04:28:38;13.00;99.90
15947;DHT22;8072;52.554;7.966;2023-08-30T04:31:04;13.00;99.90
15947;DHT22;8072;52.554;7.966;2023-08-30T04:33:29;13.00;99.90
15947;DHT22;8072;52.554;7.966;2023-08-30T04:35:55;13.10;99.90
15947;DHT22;8072;52.554;7.966;2023-08-30T04:38:21;13.00;99.90
15947;DHT22;8072;52.554;7.966;2023-08-30T04:40:47;13.10;99.90
15947;DHT22;8072;52.554;7.966;2023-08-30T04:43:14;13.10;99.90
15947;DHT22;8072;52.554;7.966;2023-08-30T04:45:40;13.10;99.90
15947;DHT22;8072;52.554;7.966;2023-08-30T04:48:06;13.10;99.90
15947;DHT22;8072;52.554;7.966;2023-08-30T04:50:32;13.10;99.90
15947;DHT22;8072;52.554;7.966;2023-08-30T04:52:58;13.10;99.90
15947;DHT22;8072;52.554;7.966;2023-08-30T04:55:24;13.10;99.90
15947;DHT22;8072;52.554;7.966;2023-08-30T04:57:50;13.10;99.90
15947;DHT22;8072;52.554;7.966;2023-08-30T05:00:17;13.10;99.90
15947;DHT22;8072;52.554;7.966;2023-08-30T05:02:43;13.10;99.90
15947;DHT22;8072;52.554;7.966;2023-08-30T05:05:12;13.10;99.90
15947;DHT22;8072;52.554;7.966;2023-08-30T05:07:38;13.10;99.90
15947;DHT22;8072;52.554;7.966;2023-08-30T05:10:05;13.10;99.90
15947;DHT22;8072;52.554;7.966;2023-08-30T05:12:32;13.10;99.90
15947;DHT22;8072;52.554;7.966;2023-08-30T05:14:58;13.10;99.90
15947;DHT22;8072;52.554;7.966;2023-08-30T05:17:24;13.20;99.90
15947;DHT22;8072;52.554;7.966;2023-08-30T05:19:50;13.20;99.90
15947;DHT22;8072;52.554;7.966;2023-08-30T05:22:16;13.20;99.90
15947;DHT22;8072;52.554;7.966;2023-08-30T05:24:42;13.10;99.90
15947;DHT22;8072;52.554;7.966;2023-08-30T05:27:08;13.10;99.90
15947;DHT22;8072;52.554;7.966;2023-08-30T05:29:33;13.10;99.90
15947;DHT22;8072;52.554;7.966;2023-08-30T05:31:59;13.10;99.90
15947;DHT22;8072;52.554;7.966;2023-08-30T05:34:25;13.20;99.90
15947;DHT22;8072;52.554;7.966;2023-08-30T05:36:52;13.20;99.90
15947;DHT22;8072;52.554;7.966;2023-08-30T05:39:18;13.10;99.90
15947;DHT22;8072;52.554;7.966;2023-08-30T05:41:44;13.10;99.90
15947;DHT22;8072;52.554;7.966;2023-08-30T05:44:10;13.10;99.90
15947;DHT22;8072;52.554;7.966;2023-08-30T05:46:36;13.10;99.90
15947;DHT22;8072;52.554;7.966;2023-08-30T05:49:01;13.10;99.90
15947;DHT22;8072;52.554;7.966;2023-08-30T05:51:28;13.10;99.90
15947;DHT22;8072;52.554;7.966;2023-08-30T05:53:54;13.10;99.90
15947;DHT22;8072;52.554;7.966;2023-08-30T05:56:20;13.10;99.90
15947;DHT22;8072;52.554;7.966;2023-08-30T05:58:46;13.10;99.90
15947;DHT22;8072;52.554;7.966;2023-08-30T06:01:12;13.10;99.90
15947;DHT22;8072;52.554;7.966;2023-08-30T06:03:37;13.10;99.90
15947;DHT22;8072;52.554;7.966;2023-08-30T06:06:03;13.10;99.90
15947;DHT22;8072;52.554;7.966;2023-08-30T06:08:29;13.10;99.90
15947;DHT22;8072;52.554;7.966;2023-08-30T06:10:55;13.10;99.90
15947;DHT22;8072;52.554;7.966;2023-08-30T06:13:22;13.10;99.90
15947;DHT22;8072;52.554;7.966;2023-08-30T06:15:54;13.10;99.90
15947;DHT22;8072;52.554;7.966;2023-08-30T06:18:19;13.10;99.90
15947;DHT22;8072;52.554;7.966;2023-08-30T06:20:45;13.10;99.90
15947;DHT22;8072;52.554;7.966;2023-08-30T06:23:13;13.20;99.90
15947;DHT22;8072;52.554;7.966;2023-08-30T06:25:39;13.20;99.90
15947;DHT22;8072;52.554;7.966;2023-08-30T06:28:05;13.30;99.90
15947;DHT22;8072;52.554;7.966;2023-08-30T06:30:30;13.30;99.90
15947;DHT22;8072;52.554;7.966;2023-08-30T06:32:57;13.30;99.90
15947;DHT22;8072;52.554;7.966;2023-08-30T06:35:23;13.30;99.90
15947;DHT22;8072;52.554;7.966;2023-08-30T06:37:49;13.30;99.90
15947;DHT22;8072;52.554;7.966;2023-08-30T06:40:15;13.40;99.90
15947;DHT22;8072;52.554;7.966;2023-08-30T06:42:41;13.40;99.90
15947;DHT22;8072;52.554;7.966;2023-08-30T06:45:07;13.40;99.90
15947;DHT22;8072;52.554;7.966;2023-08-30T06:47:32;13.40;99.90
15947;DHT22;8072;52.554;7.966;2023-08-30T06:50:00;13.50;99.90
15947;DHT22;8072;52.554;7.966;2023-08-30T06:52:26;13.50;99.90
15947;DHT22;8072;52.554;7.966;2023-08-30T06:54:52;13.50;99.90
15947;DHT22;8072;52.554;7.966;2023-08-30T06:57:17;13.60;99.90
15947;DHT22;8072;52.554;7.966;2023-08-30T06:59:43;13.60;99.90
15947;DHT22;8072;52.554;7.966;2023-08-30T07:02:09;13.70;99.90
15947;DHT22;8072;52.554;7.966;2023-08-30T07:04:35;13.70;99.90
15947;DHT22;8072;52.554;7.966;2023-08-30T07:07:00;13.70;99.90
15947;DHT22;8072;52.554;7.966;2023-08-30T07:09:26;13.80;99.90
15947;DHT22;8072;52.554;7.966;2023-08-30T07:11:58;13.80;99.90
15947;DHT22;8072;52.554;7.966;2023-08-30T07:14:24;13.80;99.90
15947;DHT22;8072;52.554;7.966;2023-08-30T07:16:50;13.90;99.90
15947;DHT22;8072;52.554;7.966;2023-08-30T07:19:19;14.00;99.90
15947;DHT22;8072;52.554;7.966;2023-08-30T07:21:44;14.00;99.90
15947;DHT22;8072;52.554;7.966;2023-08-30T07:24:10;14.00;99.90
15947;DHT22;8072;52.554;7.966;2023-08-30T07:26:36;14.10;99.90
15947;DHT22;8072;52.554;7.966;2023-08-30T07:29:03;14.10;99.90
15947;DHT22;8072;52.554;7.966;2023-08-30T07:31:32;14.20;99.90
15947;DHT22;8072;52.554;7.966;2023-08-30T07:33:59;14.20;99.90
15947;DHT22;8072;52.554;7.966;2023-08-30T07:36:26;14.30;99.90
15947;DHT22;8072;52.554;7.966;2023-08-30T07:38:52;14.40;99.90
15947;DHT22;8072;52.554;7.966;2023-08-30T07:41:17;14.50;99.90
15947;DHT22;8072;52.554;7.966;2023-08-30T07:43:43;14.50;99.90
15947;DHT22;8072;52.554;7.966;2023-08-30T07:46:09;14.50;99.90
15947;DHT22;8072;52.554;7.966;2023-08-30T07:48:35;14.60;99.90
15947;DHT22;8072;52.554;7.966;2023-08-30T07:51:00;14.70;99.90
15947;DHT22;8072;52.554;7.966;2023-08-30T07:53:26;14.80;99.90
15947;DHT22;8072;52.554;7.966;2023-08-30T07:55:52;14.90;99.90
15947;DHT22;8072;52.554;7.966;2023-08-30T07:58:17;14.90;99.90
15947;DHT22;8072;52.554;7.966;2023-08-30T08:00:43;15.00;99.90
15947;DHT22;8072;52.554;7.966;2023-08-30T08:03:09;15.00;99.90
15947;DHT22;8072;52.554;7.966;2023-08-30T08:05:38;15.20;99.90
15947;DHT22;8072;52.554;7.966;2023-08-30T08:08:04;15.30;99.90
15947;DHT22;8072;52.554;7.966;2023-08-30T08:10:33;15.40;99.90
15947;DHT22;8072;52.554;7.966;2023-08-30T08:13:02;15.50;99.90
15947;DHT22;8072;52.554;7.966;2023-08-30T08:15:29;15.60;99.90
15947;DHT22;8072;52.554;7.966;2023-08-30T08:18:02;15.70;99.90
15947;DHT22;8072;52.554;7.966;2023-08-30T08:20:29;15.80;99.90
15947;DHT22;8072;52.554;7.966;2023-08-30T08:22:54;15.90;99.90
15947;DHT22;8072;52.554;7.966;2023-08-30T08:25:20;16.00;99.90
15947;DHT22;8072;52.554;7.966;2023-08-30T08:27:47;16.10;99.90
15947;DHT22;8072;52.554;7.966;2023-08-30T08:30:13;16.20;99.90
15947;DHT22;8072;52.554;7.966;2023-08-30T08:32:39;16.40;99.90
15947;DHT22;8072;52.554;7.966;2023-08-30T08:35:05;16.50;99.90
15947;DHT22;8072;52.554;7.966;2023-08-30T08:37:32;16.60;99.90
15947;DHT22;8072;52.554;7.966;2023-08-30T08:39:58;16.70;99.90
15947;DHT22;8072;52.554;7.966;2023-08-30T08:42:23;16.70;99.90
15947;DHT22;8072;52.554;7.966;2023-08-30T08:44:54;16.80;99.90
15947;DHT22;8072;52.554;7.966;2023-08-30T08:47:20;16.90;99.90
15947;DHT22;8072;52.554;7.966;2023-08-30T08:49:50;16.90;99.90
15947;DHT22;8072;52.554;7.966;2023-08-30T08:52:17;17.00;99.90
15947;DHT22;8072;52.554;7.966;2023-08-30T08:54:43;17.00;99.90
15947;DHT22;8072;52.554;7.966;2023-08-30T08:57:09;17.00;99.90
15947;DHT22;8072;52.554;7.966;2023-08-30T08:59:35;17.00;99.90
15947;DHT22;8072;52.554;7.966;2023-08-30T09:02:01;17.00;99.90
15947;DHT22;8072;52.554;7.966;2023-08-30T09:04:30;17.00;99.90
15947;DHT22;8072;52.554;7.966;2023-08-30T09:06:57;17.00;99.90
15947;DHT22;8072;52.554;7.966;2023-08-30T09:09:24;17.00;99.90
15947;DHT22;8072;52.554;7.966;2023-08-30T09:11:50;17.00;99.90
15947;DHT22;8072;52.554;7.966;2023-08-30T09:14:15;17.10;99.90
15947;DHT22;8072;52.554;7.966;2023-08-30T09:16:42;17.10;99.90
15947;DHT22;8072;52.554;7.966;2023-08-30T09:19:08;17.10;99.90
15947;DHT22;8072;52.554;7.966;2023-08-30T09:21:37;17.10;99.90
15947;DHT22;8072;52.554;7.966;2023-08-30T09:24:05;17.10;99.90
15947;DHT22;8072;52.554;7.966;2023-08-30T09:26:32;17.10;99.90
15947;DHT22;8072;52.554;7.966;2023-08-30T09:29:08;17.00;99.90
15947;DHT22;8072;52.554;7.966;2023-08-30T09:31:37;17.00;99.90
15947;DHT22;8072;52.554;7.966;2023-08-30T09:34:06;17.10;99.90
15947;DHT22;8072;52.554;7.966;2023-08-30T09:36:41;17.10;99.90
15947;DHT22;8072;52.554;7.966;2023-08-30T09:41:35;17.20;99.90
15947;DHT22;8072;52.554;7.966;2023-08-30T09:46:44;17.20;99.90
15947;DHT22;8072;52.554;7.966;2023-08-30T09:49:11;17.30;99.90
15947;DHT22;8072;52.554;7.966;2023-08-30T09:51:39;17.30;99.90
15947;DHT22;8072;52.554;7.966;2023-08-30T09:54:20;17.30;99.90
15947;DHT22;8072;52.554;7.966;2023-08-30T09:56:46;17.20;99.90
15947;DHT22;8072;52.554;7.966;2023-08-30T09:59:15;17.20;99.90
15947;DHT22;8072;52.554;7.966;2023-08-30T10:01:46;17.20;99.90
15947;DHT22;8072;52.554;7.966;2023-08-30T10:04:13;17.20;99.90
15947;DHT22;8072;52.554;7.966;2023-08-30T10:06:40;17.20;99.90
15947;DHT22;8072;52.554;7.966;2023-08-30T10:09:08;17.20;99.90
15947;DHT22;8072;52.554;7.966;2023-08-30T10:11:38;17.20;99.90
15947;DHT22;8072;52.554;7.966;2023-08-30T10:14:07;17.20;99.90
15947;DHT22;8072;52.554;7.966;2023-08-30T10:16:47;17.20;99.90
15947;DHT22;8072;52.554;7.966;2023-08-30T10:19:21;17.30;99.90
15947;DHT22;8072;52.554;7.966;2023-08-30T10:22:03;17.30;99.90
15947;DHT22;8072;52.554;7.966;2023-08-30T10:24:37;17.30;99.90
15947;DHT22;8072;52.554;7.966;2023-08-30T10:27:05;17.30;99.90
15947;DHT22;8072;52.554;7.966;2023-08-30T10:29:33;17.40;99.90
15947;DHT22;8072;52.554;7.966;2023-08-30T10:32:04;17.40;99.90
15947;DHT22;8072;52.554;7.966;2023-08-30T10:34:34;17.40;99.90
15947;DHT22;8072;52.554;7.966;2023-08-30T10:37:02;17.50;99.90
15947;DHT22;8072;52.554;7.966;2023-08-30T10:39:36;17.50;99.90
15947;DHT22;8072;52.554;7.966;2023-08-30T10:42:11;17.50;99.90
15947;DHT22;8072;52.554;7.966;2023-08-30T10:44:59;17.60;99.90
15947;DHT22;8072;52.554;7.966;2023-08-30T10:47:36;17.70;99.90
15947;DHT22;8072;52.554;7.966;2023-08-30T10:50:12;17.70;99.90
15947;DHT22;8072;52.554;7.966;2023-08-30T10:52:39;17.70;99.90
15947;DHT22;8072;52.554;7.966;2023-08-30T10:57:32;17.80;99.90
15947;DHT22;8072;52.554;7.966;2023-08-30T11:02:36;17.60;99.90
15947;DHT22;8072;52.554;7.966;2023-08-30T11:05:04;17.60;99.90
15947;DHT22;8072;52.554;7.966;2023-08-30T11:07:31;17.50;99.90
15947;DHT22;8072;52.554;7.966;2023-08-30T11:09:57;17.50;99.90
15947;DHT22;8072;52.554;7.966;2023-08-30T11:12:23;17.40;99.90
15947;DHT22;8072;52.554;7.966;2023-08-30T11:14:52;17.30;99.90
15947;DHT22;8072;52.554;7.966;2023-08-30T11:17:18;17.30;99.90
15947;DHT22;8072;52.554;7.966;2023-08-30T11:19:45;17.40;99.90
15947;DHT22;8072;52.554;7.966;2023-08-30T11:22:12;17.40;99.90
15947;DHT22;8072;52.554;7.966;2023-08-30T11:24:39;17.30;99.90
15947;DHT22;8072;52.554;7.966;2023-08-30T11:27:06;17.30;99.90
15947;DHT22;8072;52.554;7.966;2023-08-30T11:29:32;17.30;99.90
15947;DHT22;8072;52.554;7.966;2023-08-30T11:31:58;17.20;99.90
15947;DHT22;8072;52.554;7.966;2023-08-30T11:34:24;17.10;99.90
15947;DHT22;8072;52.554;7.966;2023-08-30T11:36:50;17.10;99.90
15947;DHT22;8072;52.554;7.966;2023-08-30T11:39:17;17.10;99.90
15947;DHT22;8072;52.554;7.966;2023-08-30T11:41:44;17.10;99.90
15947;DHT22;8072;52.554;7.966;2023-08-30T11:44:10;17.10;99.90
15947;DHT22;8072;52.554;7.966;2023-08-30T11:46:36;17.00;99.90
15947;DHT22;8072;52.554;7.966;2023-08-30T11:49:02;17.10;99.90
15947;DHT22;8072;52.554;7.966;2023-08-30T11:51:29;17.00;99.90
15947;DHT22;8072;52.554;7.966;2023-08-30T11:53:55;17.10;99.90
15947;DHT22;8072;52.554;7.966;2023-08-30T11:56:23;17.10;99.90
15947;DHT22;8072;52.554;7.966;2023-08-30T11:58:49;17.00;99.90
15947;DHT22;8072;52.554;7.966;2023-08-30T12:01:18;17.00;99.90
15947;DHT22;8072;52.554;7.966;2023-08-30T12:03:45;17.00;99.90
15947;DHT22;8072;52.554;7.966;2023-08-30T12:06:16;17.00;99.90
15947;DHT22;8072;52.554;7.966;2023-08-30T12:08:42;17.00;99.90
15947;DHT22;8072;52.554;7.966;2023-08-30T12:11:20;16.90;99.90
15947;DHT22;8072;52.554;7.966;2023-08-30T12:13:46;16.80;99.90
15947;DHT22;8072;52.554;7.966;2023-08-30T12:16:19;16.80;99.90
15947;DHT22;8072;52.554;7.966;2023-08-30T12:18:46;16.70;99.90
15947;DHT22;8072;52.554;7.966;2023-08-30T12:21:13;16.70;99.90
15947;DHT22;8072;52.554;7.966;2023-08-30T12:23:39;16.60;99.90
15947;DHT22;8072;52.554;7.966;2023-08-30T12:26:10;16.50;99.90
15947;DHT22;8072;52.554;7.966;2023-08-30T12:28:45;16.40;99.90
15947;DHT22;8072;52.554;7.966;2023-08-30T12:31:10;16.20;99.90
15947;DHT22;8072;52.554;7.966;2023-08-30T12:33:40;16.10;99.90
15947;DHT22;8072;52.554;7.966;2023-08-30T12:36:06;16.10;99.90
15947;DHT22;8072;52.554;7.966;2023-08-30T12:38:32;16.00;99.90
15947;DHT22;8072;52.554;7.966;2023-08-30T12:40:58;15.80;99.90
15947;DHT22;8072;52.554;7.966;2023-08-30T12:43:24;15.80;99.90
15947;DHT22;8072;52.554;7.966;2023-08-30T12:45:50;15.70;99.90
15947;DHT22;8072;52.554;7.966;2023-08-30T12:48:17;15.50;99.90
15947;DHT22;8072;52.554;7.966;2023-08-30T12:50:45;15.50;99.90
15947;DHT22;8072;52.554;7.966;2023-08-30T12:53:11;15.40;99.90
15947;DHT22;8072;52.554;7.966;2023-08-30T12:55:37;15.40;99.90
15947;DHT22;8072;52.554;7.966;2023-08-30T12:58:07;15.40;99.90
15947;DHT22;8072;52.554;7.966;2023-08-30T13:00:33;15.40;99.90
15947;DHT22;8072;52.554;7.966;2023-08-30T13:02:59;15.40;99.90
15947;DHT22;8072;52.554;7.966;2023-08-30T13:05:26;15.40;99.90
15947;DHT22;8072;52.554;7.966;2023-08-30T13:07:52;15.40;99.90
15947;DHT22;8072;52.554;7.966;2023-08-30T13:10:18;15.40;99.90
15947;DHT22;8072;52.554;7.966;2023-08-30T13:12:44;15.40;99.90
15947;DHT22;8072;52.554;7.966;2023-08-30T13:15:10;15.30;99.90
15947;DHT22;8072;52.554;7.966;2023-08-30T13:17:35;15.30;99.90
15947;DHT22;8072;52.554;7.966;2023-08-30T13:20:02;15.30;99.90
15947;DHT22;8072;52.554;7.966;2023-08-30T13:22:28;15.20;99.90
15947;DHT22;8072;52.554;7.966;2023-08-30T13:24:54;15.20;99.90
15947;DHT22;8072;52.554;7.966;2023-08-30T13:27:20;15.20;99.90
15947;DHT22;8072;52.554;7.966;2023-08-30T13:29:46;15.20;99.90
15947;DHT22;8072;52.554;7.966;2023-08-30T13:32:13;15.20;99.90
15947;DHT22;8072;52.554;7.966;2023-08-30T13:34:39;15.10;99.90
15947;DHT22;8072;52.554;7.966;2023-08-30T13:37:05;15.10;99.90
15947;DHT22;8072;52.554;7.966;2023-08-30T13:39:31;15.10;99.90
15947;DHT22;8072;52.554;7.966;2023-08-30T13:41:57;15.10;99.90
15947;DHT22;8072;52.554;7.966;2023-08-30T13:44:23;15.10;99.90
15947;DHT22;8072;52.554;7.966;2023-08-30T13:46:50;15.10;99.90
15947;DHT22;8072;52.554;7.966;2023-08-30T13:49:15;15.20;99.90
15947;DHT22;8072;52.554;7.966;2023-08-30T13:51:41;15.20;99.90
15947;DHT22;8072;52.554;7.966;2023-08-30T13:54:07;15.20;99.90
15947;DHT22;8072;52.554;7.966;2023-08-30T13:56:33;15.30;99.90
15947;DHT22;8072;52.554;7.966;2023-08-30T13:58:59;15.40;99.90
15947;DHT22;8072;52.554;7.966;2023-08-30T14:01:25;15.40;99.90
15947;DHT22;8072;52.554;7.966;2023-08-30T14:03:51;15.60;99.90
15947;DHT22;8072;52.554;7.966;2023-08-30T14:06:18;15.60;99.90
15947;DHT22;8072;52.554;7.966;2023-08-30T14:08:44;15.70;99.90
15947;DHT22;8072;52.554;7.966;2023-08-30T14:11:09;15.80;99.90
15947;DHT22;8072;52.554;7.966;2023-08-30T14:13:35;15.80;99.90
15947;DHT22;8072;52.554;7.966;2023-08-30T14:16:02;15.80;99.90
15947;DHT22;8072;52.554;7.966;2023-08-30T14:18:31;15.70;99.90
15947;DHT22;8072;52.554;7.966;2023-08-30T14:20:57;15.70;99.90
15947;DHT22;8072;52.554;7.966;2023-08-30T14:23:27;15.70;99.90
15947;DHT22;8072;52.554;7.966;2023-08-30T14:26:03;15.60;99.90
15947;DHT22;8072;52.554;7.966;2023-08-30T14:28:36;15.50;99.90
15947;DHT22;8072;52.554;7.966;2023-08-30T14:31:02;15.50;99.90
15947;DHT22;8072;52.554;7.966;2023-08-30T14:33:29;15.50;99.90
15947;DHT22;8072;52.554;7.966;2023-08-30T14:35:55;15.60;99.90
15947;DHT22;8072;52.554;7.966;2023-08-30T14:38:22;15.60;99.90
15947;DHT22;8072;52.554;7.966;2023-08-30T14:40:58;15.60;99.90
15947;DHT22;8072;52.554;7.966;2023-08-30T14:43:25;15.60;99.90
15947;DHT22;8072;52.554;7.966;2023-08-30T14:45:51;15.50;99.90
15947;DHT22;8072;52.554;7.966;2023-08-30T14:48:17;15.60;99.90
15947;DHT22;8072;52.554;7.966;2023-08-30T14:50:43;15.50;99.90
15947;DHT22;8072;52.554;7.966;2023-08-30T14:53:09;15.60;99.90
15947;DHT22;8072;52.554;7.966;2023-08-30T14:55:34;15.60;99.90
15947;DHT22;8072;52.554;7.966;2023-08-30T14:58:00;15.70;99.90
15947;DHT22;8072;52.554;7.966;2023-08-30T15:00:26;15.70;99.90
15947;DHT22;8072;52.554;7.966;2023-08-30T15:02:52;15.80;99.90
15947;DHT22;8072;52.554;7.966;2023-08-30T15:05:18;15.80;99.90
15947;DHT22;8072;52.554;7.966;2023-08-30T15:07:44;15.90;99.90
15947;DHT22;8072;52.554;7.966;2023-08-30T15:10:10;15.90;99.90
15947;DHT22;8072;52.554;7.966;2023-08-30T15:12:37;15.90;99.90
15947;DHT22;8072;52.554;7.966;2023-08-30T15:15:04;15.90;99.90
15947;DHT22;8072;52.554;7.966;2023-08-30T15:17:29;15.90;99.90
15947;DHT22;8072;52.554;7.966;2023-08-30T15:19:55;15.90;99.90
15947;DHT22;8072;52.554;7.966;2023-08-30T15:22:21;15.90;99.90
15947;DHT22;8072;52.554;7.966;2023-08-30T15:24:47;15.80;99.90
15947;DHT22;8072;52.554;7.966;2023-08-30T15:27:13;15.90;99.90
15947;DHT22;8072;52.554;7.966;2023-08-30T15:29:40;15.80;99.90
15947;DHT22;8072;52.554;7.966;2023-08-30T15:32:06;15.90;99.90
15947;DHT22;8072;52.554;7.966;2023-08-30T15:34:33;15.90;99.90
15947;DHT22;8072;52.554;7.966;2023-08-30T15:36:59;15.90;99.90
15947;DHT22;8072;52.554;7.966;2023-08-30T15:39:24;15.90;99.90
15947;DHT22;8072;52.554;7.966;2023-08-30T15:41:50;16.00;99.90
15947;DHT22;8072;52.554;7.966;2023-08-30T15:44:16;16.10;99.90
15947;DHT22;8072;52.554;7.966;2023-08-30T15:46:42;16.10;99.90
15947;DHT22;8072;52.554;7.966;2023-08-30T15:49:07;16.20;99.90
15947;DHT22;8072;52.554;7.966;2023-08-30T15:51:34;16.30;99.90
15947;DHT22;8072;52.554;7.966;2023-08-30T15:54:01;16.40;99.90
15947;DHT22;8072;52.554;7.966;2023-08-30T15:56:27;16.50;99.90
15947;DHT22;8072;52.554;7.966;2023-08-30T15:58:52;16.60;99.90